Time;durP1;ratioP1;P1;durP2;ratioP2;P2;SDS_P1;SDS_P2;PMS_P1;PMS_P2;Temp;Humidity;BMP_temperature;BMP_pressure;BME280_temperature;BME280_humidity;BME280_pressure;Samples;Min_cycle;Max_cycle;Signal;HPM_P1;HPM_P2
2022/12/03 00:02:08;;;;;;;15.23;10.30;;;;;;;;;;5032159;28;20231;-84
2022/12/03 00:04:36;;;;;;;12.87;9.20;;;;;;;;;;5031904;28;20586;-82
2022/12/03 00:07:03;;;;;;;15.67;9.83;;;;;;;;;;5027952;28;20222;-83
2022/12/03 00:09:30;;;;;;;14.43;9.33;;;;;;;;;;5015863;28;20207;-83
2022/12/03 00:11:57;;;;;;;15.33;10.17;;;;;;;;;;5011063;28;20253;-83
2022/12/03 00:14:24;;;;;;;15.57;9.53;;;;;;;;;;5011970;28;20212;-82
2022/12/03 00:16:51;;;;;;;14.33;9.40;;;;;;;;;;5010259;28;20230;-82
2022/12/03 00:19:20;;;;;;;14.10;9.67;;;;;;;;;;5011439;28;20215;-82
2022/12/03 00:21:47;;;;;;;18.50;9.97;;;;;;;;;;5011295;28;20238;-82
2022/12/03 00:24:14;;;;;;;16.30;10.07;;;;;;;;;;5011984;28;20230;-83
2022/12/03 00:26:41;;;;;;;14.23;10.23;;;;;;;;;;5015815;28;20724;-82
2022/12/03 00:29:08;;;;;;;16.07;9.87;;;;;;;;;;5031712;28;20206;-82
2022/12/03 00:31:35;;;;;;;12.63;9.47;;;;;;;;;;5031099;28;20246;-82
2022/12/03 00:34:02;;;;;;;16.07;10.03;;;;;;;;;;5023832;28;20690;-82
2022/12/03 00:36:31;;;;;;;15.60;10.03;;;;;;;;;;5011471;28;20234;-82
2022/12/03 00:38:58;;;;;;;14.70;9.80;;;;;;;;;;5011754;28;20230;-82
2022/12/03 00:41:25;;;;;;;15.37;10.03;;;;;;;;;;5011300;28;20231;-82
2022/12/03 00:43:56;;;;;;;16.73;9.43;;;;;;;;;;5011814;28;20231;-84
2022/12/03 00:46:23;;;;;;;17.60;10.73;;;;;;;;;;5011468;28;20238;-84
2022/12/03 00:48:50;;;;;;;13.77;9.00;;;;;;;;;;5011885;28;20207;-84
2022/12/03 00:51:17;;;;;;;18.13;10.07;;;;;;;;;;5010699;28;20243;-85
2022/12/03 00:53:46;;;;;;;15.67;9.47;;;;;;;;;;5012323;28;20230;-84
2022/12/03 00:56:13;;;;;;;15.50;9.03;;;;;;;;;;5011876;28;20883;-84
2022/12/03 00:58:40;;;;;;;16.87;10.40;;;;;;;;;;5011959;28;20218;-84
2022/12/03 01:01:07;;;;;;;16.03;10.03;;;;;;;;;;5015046;28;20234;-84
2022/12/03 01:03:34;;;;;;;15.03;10.20;;;;;;;;;;5015724;28;20227;-85
2022/12/03 01:06:01;;;;;;;18.50;10.33;;;;;;;;;;5010795;28;20239;-84
2022/12/03 01:08:28;;;;;;;17.23;11.03;;;;;;;;;;5018740;28;20226;-84
2022/12/03 01:10:57;;;;;;;19.00;10.73;;;;;;;;;;5033550;28;20322;-84
2022/12/03 01:13:24;;;;;;;19.43;10.80;;;;;;;;;;5034784;28;20715;-83
2022/12/03 01:15:51;;;;;;;22.07;11.60;;;;;;;;;;5034500;28;20241;-83
2022/12/03 01:18:18;;;;;;;19.20;10.60;;;;;;;;;;5027851;28;20203;-84
2022/12/03 01:20:45;;;;;;;18.33;10.67;;;;;;;;;;5014650;28;20231;-83
2022/12/03 01:23:12;;;;;;;17.03;10.53;;;;;;;;;;5014632;28;20730;-83
2022/12/03 01:25:39;;;;;;;17.67;10.57;;;;;;;;;;5014522;28;20588;-84
2022/12/03 01:28:08;;;;;;;23.13;11.07;;;;;;;;;;5019618;28;20210;-84
2022/12/03 01:32:15;;;;;;;15.83;10.67;;;;;;;;;;5011435;28;20240;-84
2022/12/03 01:33:21;;;;;;;18.17;10.10;;;;;;;;;;5034276;28;20234;-84
2022/12/03 01:35:48;;;;;;;17.63;11.03;;;;;;;;;;5033959;28;20226;-83
2022/12/03 01:38:15;;;;;;;19.00;11.40;;;;;;;;;;5026220;28;20226;-84
2022/12/03 01:40:44;;;;;;;19.20;11.23;;;;;;;;;;5033788;28;20727;-84
2022/12/03 01:43:14;;;;;;;19.40;10.60;;;;;;;;;;5034159;28;20258;-84
2022/12/03 01:45:41;;;;;;;19.70;11.90;;;;;;;;;;5027899;28;20234;-82
2022/12/03 01:48:09;;;;;;;21.93;11.73;;;;;;;;;;5017547;28;20214;-84
2022/12/03 01:50:37;;;;;;;21.40;11.60;;;;;;;;;;5014801;28;20604;-84
2022/12/03 01:53:04;;;;;;;20.43;12.43;;;;;;;;;;5016596;28;20239;-84
2022/12/03 01:55:31;;;;;;;18.33;10.67;;;;;;;;;;5013933;28;20227;-85
2022/12/03 01:58:00;;;;;;;18.20;11.53;;;;;;;;;;4995382;28;20208;-84
2022/12/03 02:00:29;;;;;;;23.87;11.73;;;;;;;;;;4993915;28;20242;-84
2022/12/03 02:02:57;;;;;;;18.70;10.90;;;;;;;;;;4998797;28;20224;-84
2022/12/03 02:05:26;;;;;;;21.30;10.97;;;;;;;;;;5018644;28;20238;-84
2022/12/03 02:07:53;;;;;;;20.80;11.80;;;;;;;;;;5033633;28;20207;-84
2022/12/03 02:10:23;;;;;;;17.93;11.07;;;;;;;;;;5033689;28;20230;-83
2022/12/03 02:12:52;;;;;;;17.97;10.60;;;;;;;;;;5024279;28;20227;-84
2022/12/03 02:15:19;;;;;;;19.37;11.03;;;;;;;;;;5033355;28;20234;-84
2022/12/03 02:17:48;;;;;;;19.33;11.00;;;;;;;;;;5029870;28;20214;-84
2022/12/03 02:20:17;;;;;;;19.80;11.30;;;;;;;;;;5013787;28;20235;-84
2022/12/03 02:22:47;;;;;;;19.53;11.17;;;;;;;;;;5013960;28;20254;-84
2022/12/03 02:25:19;;;;;;;23.40;12.67;;;;;;;;;;5005669;28;20383;-84
2022/12/03 02:27:47;;;;;;;19.00;11.97;;;;;;;;;;5011437;28;20242;-84
2022/12/03 02:30:15;;;;;;;19.60;11.50;;;;;;;;;;5012041;28;20235;-83
2022/12/03 02:32:42;;;;;;;20.70;11.47;;;;;;;;;;5022976;28;20268;-84
2022/12/03 02:35:13;;;;;;;19.63;12.03;;;;;;;;;;5026928;28;20234;-84
2022/12/03 02:37:41;;;;;;;18.67;10.60;;;;;;;;;;5014226;28;20207;-84
2022/12/03 02:40:10;;;;;;;19.67;12.67;;;;;;;;;;5032423;28;20237;-83
2022/12/03 02:42:38;;;;;;;23.70;13.23;;;;;;;;;;5032777;28;20726;-84
2022/12/03 02:45:08;;;;;;;22.57;11.73;;;;;;;;;;5032727;28;20230;-84
2022/12/03 02:47:38;;;;;;;25.37;12.57;;;;;;;;;;5024841;28;20228;-84
2022/12/03 02:50:06;;;;;;;20.90;12.60;;;;;;;;;;5012642;28;20235;-84
2022/12/03 02:52:33;;;;;;;21.30;11.80;;;;;;;;;;5013367;28;20234;-84
2022/12/03 02:55:01;;;;;;;23.10;12.70;;;;;;;;;;5012959;28;20739;-83
2022/12/03 02:57:29;;;;;;;21.73;12.30;;;;;;;;;;5012712;28;20656;-84
2022/12/03 02:59:57;;;;;;;19.00;12.27;;;;;;;;;;5012775;28;20212;-84
2022/12/03 03:02:27;;;;;;;22.20;12.13;;;;;;;;;;5013385;28;20241;-84
2022/12/03 03:04:54;;;;;;;23.27;12.40;;;;;;;;;;5012592;28;20214;-85
2022/12/03 03:07:21;;;;;;;22.73;11.87;;;;;;;;;;5012787;28;20227;-84
2022/12/03 03:09:49;;;;;;;23.03;12.33;;;;;;;;;;5012945;28;20214;-84
2022/12/03 03:12:16;;;;;;;21.63;11.93;;;;;;;;;;5013313;28;20234;-85
2022/12/03 03:14:43;;;;;;;21.70;12.20;;;;;;;;;;5012553;28;20211;-84
2022/12/03 03:17:11;;;;;;;18.80;12.30;;;;;;;;;;5025774;28;20211;-84
2022/12/03 03:19:38;;;;;;;19.30;11.63;;;;;;;;;;5032546;28;20207;-84
2022/12/03 03:22:05;;;;;;;20.07;11.43;;;;;;;;;;5032880;28;20733;-85
2022/12/03 03:24:33;;;;;;;20.97;12.63;;;;;;;;;;5032924;28;20548;-84
2022/12/03 03:27:00;;;;;;;22.27;12.20;;;;;;;;;;5026496;28;20231;-84
2022/12/03 03:29:27;;;;;;;22.07;12.20;;;;;;;;;;5012549;28;20679;-84
2022/12/03 03:31:54;;;;;;;21.47;12.23;;;;;;;;;;5012020;28;21016;-84
2022/12/03 03:34:22;;;;;;;22.60;12.80;;;;;;;;;;5012818;28;20207;-84
2022/12/03 03:36:50;;;;;;;20.33;11.77;;;;;;;;;;5011524;28;20318;-84
2022/12/03 03:39:17;;;;;;;22.57;12.97;;;;;;;;;;5012655;28;20215;-84
2022/12/03 03:41:45;;;;;;;21.60;12.43;;;;;;;;;;5012224;28;20243;-84
2022/12/03 03:44:12;;;;;;;23.53;11.77;;;;;;;;;;5012521;28;20663;-84
2022/12/03 03:46:40;;;;;;;22.97;12.33;;;;;;;;;;5011782;28;20699;-84
2022/12/03 03:49:08;;;;;;;23.13;13.00;;;;;;;;;;5011519;28;20204;-84
2022/12/03 03:51:37;;;;;;;20.33;12.27;;;;;;;;;;5012230;28;20239;-84
2022/12/03 03:54:06;;;;;;;22.33;12.27;;;;;;;;;;5012517;28;20218;-84
2022/12/03 03:56:33;;;;;;;21.63;12.77;;;;;;;;;;5012230;28;20231;-84
2022/12/03 03:59:00;;;;;;;22.33;13.10;;;;;;;;;;5011915;28;20207;-84
2022/12/03 04:01:28;;;;;;;21.80;12.60;;;;;;;;;;5012017;28;20381;-84
2022/12/03 04:03:56;;;;;;;23.80;12.07;;;;;;;;;;5012666;28;20266;-84
2022/12/03 04:06:23;;;;;;;24.60;13.17;;;;;;;;;;5011681;28;20238;-85
2022/12/03 04:08:51;;;;;;;23.30;12.57;;;;;;;;;;5012231;28;20214;-85
2022/12/03 04:14:03;;;;;;;19.90;12.33;;;;;;;;;;5012383;28;20191;-84
2022/12/03 04:16:30;;;;;;;26.87;12.13;;;;;;;;;;5011413;28;20223;-84
2022/12/03 04:18:57;;;;;;;23.83;12.60;;;;;;;;;;5023666;28;20202;-84
2022/12/03 04:24:11;;;;;;;24.70;14.07;;;;;;;;;;5032209;28;20244;-84
2022/12/03 04:29:23;;;;;;;19.47;12.63;;;;;;;;;;4992559;28;20203;-84
2022/12/03 04:37:20;;;;;;;20.63;11.67;;;;;;;;;;5008943;28;20214;-84
2022/12/03 04:39:48;;;;;;;21.93;12.53;;;;;;;;;;5015219;28;20669;-84
2022/12/03 04:42:15;;;;;;;22.10;12.97;;;;;;;;;;5012127;28;20290;-84
2022/12/03 04:44:42;;;;;;;22.13;12.27;;;;;;;;;;5012542;28;20209;-84
2022/12/03 04:47:11;;;;;;;25.57;12.67;;;;;;;;;;5015150;28;20227;-84
2022/12/03 04:49:39;;;;;;;19.50;12.70;;;;;;;;;;5015201;28;20207;-84
2022/12/03 04:52:07;;;;;;;26.63;12.67;;;;;;;;;;5015641;28;20234;-84
2022/12/03 04:54:34;;;;;;;22.47;12.17;;;;;;;;;;5015676;28;20302;-84
2022/12/03 04:57:03;;;;;;;20.70;12.17;;;;;;;;;;5015581;28;20235;-84
2022/12/03 04:59:30;;;;;;;22.70;13.23;;;;;;;;;;5014883;28;20208;-84
2022/12/03 05:01:57;;;;;;;21.00;12.27;;;;;;;;;;5014646;28;20243;-84
2022/12/03 05:04:24;;;;;;;19.77;12.23;;;;;;;;;;5015036;28;20218;-84
2022/12/03 05:06:51;;;;;;;26.60;12.90;;;;;;;;;;5013843;28;20235;-84
2022/12/03 05:09:18;;;;;;;22.83;12.70;;;;;;;;;;5015097;28;20210;-84
2022/12/03 05:11:45;;;;;;;22.90;12.50;;;;;;;;;;4995203;28;20236;-84
2022/12/03 05:14:14;;;;;;;22.87;12.60;;;;;;;;;;4995402;28;20208;-84
2022/12/03 05:16:41;;;;;;;21.87;11.97;;;;;;;;;;5004102;28;20230;-84
2022/12/03 05:19:09;;;;;;;18.90;11.10;;;;;;;;;;5014783;28;20218;-84
2022/12/03 05:21:35;;;;;;;19.63;11.63;;;;;;;;;;5014335;28;20235;-84
2022/12/03 05:24:02;;;;;;;21.43;12.10;;;;;;;;;;5014910;28;20663;-84
2022/12/03 05:26:29;;;;;;;19.53;11.33;;;;;;;;;;5014032;28;20228;-84
2022/12/03 05:28:56;;;;;;;21.37;11.03;;;;;;;;;;5014304;28;20207;-84
2022/12/03 05:31:25;;;;;;;17.00;10.50;;;;;;;;;;5013353;28;20235;-84
2022/12/03 05:33:53;;;;;;;20.73;12.33;;;;;;;;;;5014884;28;20227;-84
2022/12/03 05:36:20;;;;;;;17.80;10.50;;;;;;;;;;5014228;28;20246;-84
2022/12/03 05:38:47;;;;;;;20.57;11.90;;;;;;;;;;5014460;28;20218;-84
2022/12/03 05:43:59;;;;;;;20.17;12.17;;;;;;;;;;5017965;28;20272;-84
2022/12/03 05:46:28;;;;;;;20.07;11.50;;;;;;;;;;5033671;28;20738;-84
2022/12/03 05:48:55;;;;;;;19.63;11.97;;;;;;;;;;5034415;28;20222;-84
2022/12/03 05:51:22;;;;;;;22.67;11.57;;;;;;;;;;5021741;28;20224;-84
2022/12/03 05:53:49;;;;;;;23.57;11.53;;;;;;;;;;5021819;28;20219;-84
2022/12/03 05:56:16;;;;;;;19.77;11.87;;;;;;;;;;5012108;28;20235;-85
2022/12/03 05:58:43;;;;;;;20.30;11.63;;;;;;;;;;5018736;28;20204;-84
2022/12/03 06:01:10;;;;;;;18.13;11.13;;;;;;;;;;5023249;28;20230;-84
2022/12/03 06:03:38;;;;;;;17.60;11.23;;;;;;;;;;5020398;28;20730;-84
2022/12/03 06:06:06;;;;;;;21.60;12.13;;;;;;;;;;5013602;28;20236;-86
2022/12/03 06:08:33;;;;;;;18.70;11.47;;;;;;;;;;5013626;28;20233;-84
2022/12/03 06:11:00;;;;;;;17.37;10.63;;;;;;;;;;5013214;28;20235;-84
2022/12/03 06:13:27;;;;;;;20.70;12.33;;;;;;;;;;5013974;28;20432;-83
2022/12/03 06:15:54;;;;;;;23.00;12.37;;;;;;;;;;5013263;28;20292;-84
2022/12/03 06:18:21;;;;;;;22.67;11.60;;;;;;;;;;5013766;28;20199;-83
2022/12/03 06:20:50;;;;;;;18.80;11.60;;;;;;;;;;5014197;28;20235;-85
2022/12/03 06:23:18;;;;;;;27.00;12.67;;;;;;;;;;5025405;28;20218;-85
2022/12/03 06:25:45;;;;;;;21.87;12.00;;;;;;;;;;5033701;28;20241;-85
2022/12/03 06:28:12;;;;;;;21.30;11.90;;;;;;;;;;5033476;28;20222;-89
2022/12/03 06:30:39;;;;;;;18.70;11.03;;;;;;;;;;5031497;28;20243;-83
2022/12/03 06:33:06;;;;;;;17.77;10.33;;;;;;;;;;5013505;28;20225;-83
2022/12/03 06:35:33;;;;;;;16.53;10.10;;;;;;;;;;5012815;28;20239;-83
2022/12/03 06:38:02;;;;;;;18.03;10.87;;;;;;;;;;5012913;28;20203;-83
2022/12/03 06:40:29;;;;;;;19.33;12.00;;;;;;;;;;5012755;28;20235;-82
2022/12/03 06:42:56;;;;;;;20.37;11.47;;;;;;;;;;5012863;28;20273;-83
2022/12/03 06:45:23;;;;;;;17.87;10.43;;;;;;;;;;5034597;22;20238;-81
2022/12/03 06:47:50;;;;;;;17.70;10.17;;;;;;;;;;5014314;28;20226;-81
2022/12/03 06:50:17;;;;;;;16.57;9.77;;;;;;;;;;5012666;28;20254;-81
2022/12/03 06:52:44;;;;;;;18.13;11.20;;;;;;;;;;5013016;28;20218;-81
2022/12/03 06:55:13;;;;;;;18.13;10.57;;;;;;;;;;5012162;28;20231;-80
2022/12/03 06:57:40;;;;;;;17.27;11.20;;;;;;;;;;5013136;28;20200;-80
2022/12/03 07:00:08;;;;;;;19.30;10.70;;;;;;;;;;5011577;28;20252;-81
2022/12/03 07:02:35;;;;;;;18.07;11.10;;;;;;;;;;5010367;28;20203;-81
2022/12/03 07:05:02;;;;;;;15.03;9.93;;;;;;;;;;5012375;28;20246;-82
2022/12/03 07:07:29;;;;;;;16.53;10.03;;;;;;;;;;5010736;28;20607;-82
2022/12/03 07:09:56;;;;;;;16.97;10.67;;;;;;;;;;5024347;28;20238;-81
2022/12/03 07:12:24;;;;;;;19.33;11.20;;;;;;;;;;5020093;28;20203;-81
2022/12/03 07:14:52;;;;;;;19.13;10.87;;;;;;;;;;5022061;28;20663;-81
2022/12/03 07:17:19;;;;;;;17.57;11.13;;;;;;;;;;5026693;28;20206;-81
2022/12/03 07:19:46;;;;;;;15.63;10.80;;;;;;;;;;5018362;28;20218;-81
2022/12/03 07:22:13;;;;;;;18.23;11.23;;;;;;;;;;5012495;28;20219;-81
2022/12/03 07:24:40;;;;;;;17.70;10.27;;;;;;;;;;5011406;28;20607;-82
2022/12/03 07:27:07;;;;;;;18.07;10.80;;;;;;;;;;5016043;28;20309;-82
2022/12/03 07:29:35;;;;;;;17.63;10.93;;;;;;;;;;5014021;28;20755;-82
2022/12/03 07:32:02;;;;;;;17.93;11.23;;;;;;;;;;5020329;28;20199;-82
2022/12/03 07:34:29;;;;;;;15.00;9.80;;;;;;;;;;5011671;28;20303;-82
2022/12/03 07:36:57;;;;;;;15.83;10.07;;;;;;;;;;5009548;28;20230;-84
2022/12/03 07:39:24;;;;;;;15.10;9.80;;;;;;;;;;5019060;28;20214;-82
2022/12/03 07:41:51;;;;;;;19.03;10.20;;;;;;;;;;5011836;28;20235;-82
2022/12/03 07:44:18;;;;;;;14.47;10.33;;;;;;;;;;5011744;28;20235;-81
2022/12/03 07:46:47;;;;;;;18.10;10.90;;;;;;;;;;5011775;28;20714;-81
2022/12/03 07:49:14;;;;;;;16.17;9.90;;;;;;;;;;5011968;28;20223;-81
2022/12/03 07:51:41;;;;;;;15.13;9.47;;;;;;;;;;5011613;28;20737;-81
2022/12/03 07:54:09;;;;;;;17.23;10.37;;;;;;;;;;5012237;28;20232;-81
2022/12/03 07:56:36;;;;;;;16.10;10.57;;;;;;;;;;5011401;28;20239;-81
2022/12/03 07:59:03;;;;;;;21.10;10.97;;;;;;;;;;5011525;28;20211;-82
2022/12/03 08:01:30;;;;;;;17.77;10.40;;;;;;;;;;5011689;28;20246;-82
2022/12/03 08:03:58;;;;;;;18.67;11.40;;;;;;;;;;5011392;28;20219;-83
2022/12/03 08:06:25;;;;;;;17.87;10.90;;;;;;;;;;5011469;28;20227;-83
2022/12/03 08:08:52;;;;;;;18.03;11.10;;;;;;;;;;5011553;28;20231;-83
2022/12/03 08:11:19;;;;;;;17.83;10.90;;;;;;;;;;5011517;28;20231;-83
2022/12/03 08:13:46;;;;;;;21.40;11.73;;;;;;;;;;5011749;28;20231;-83
2022/12/03 08:16:16;;;;;;;16.63;10.40;;;;;;;;;;5011390;28;20246;-83
2022/12/03 08:18:43;;;;;;;17.13;10.40;;;;;;;;;;5013040;28;20210;-84
2022/12/03 08:21:14;;;;;;;19.90;11.00;;;;;;;;;;5015882;28;20231;-83
2022/12/03 08:23:42;;;;;;;19.37;11.33;;;;;;;;;;5016585;28;20233;-81
2022/12/03 08:26:13;;;;;;;18.03;11.33;;;;;;;;;;5015570;28;20223;-83
2022/12/03 08:28:40;;;;;;;18.90;11.53;;;;;;;;;;5025376;28;20230;-83
2022/12/03 08:31:17;;;;;;;21.57;11.87;;;;;;;;;;5014923;28;20230;-82
2022/12/03 08:33:44;;;;;;;20.37;11.13;;;;;;;;;;5015793;28;20227;-83
2022/12/03 08:36:14;;;;;;;17.47;10.30;;;;;;;;;;5015341;28;20240;-82
2022/12/03 08:38:41;;;;;;;18.70;10.67;;;;;;;;;;5015310;28;20200;-81
2022/12/03 08:41:11;;;;;;;18.60;10.83;;;;;;;;;;5014663;28;20239;-81
2022/12/03 08:43:41;;;;;;;21.50;11.87;;;;;;;;;;5015340;28;20643;-83
2022/12/03 08:46:12;;;;;;;20.03;11.00;;;;;;;;;;5015193;28;20246;-81
2022/12/03 08:48:39;;;;;;;20.53;11.60;;;;;;;;;;5015694;28;20288;-82
2022/12/03 08:51:12;;;;;;;20.33;12.97;;;;;;;;;;5014711;28;20239;-81
2022/12/03 08:53:44;;;;;;;19.70;12.47;;;;;;;;;;5015333;28;20207;-81
2022/12/03 08:56:18;;;;;;;22.23;12.53;;;;;;;;;;5013956;28;20285;-82
2022/12/03 08:58:47;;;;;;;20.03;12.10;;;;;;;;;;5013026;28;20200;-81
2022/12/03 09:01:31;;;;;;;20.37;12.83;;;;;;;;;;5014624;28;20235;-81
2022/12/03 09:04:02;;;;;;;21.23;13.03;;;;;;;;;;5017912;28;20239;-81
2022/12/03 09:06:30;;;;;;;21.07;12.70;;;;;;;;;;5022219;28;20227;-81
2022/12/03 09:08:58;;;;;;;23.07;12.70;;;;;;;;;;5014464;28;20230;-80
2022/12/03 09:11:25;;;;;;;24.73;13.27;;;;;;;;;;4995060;28;20240;-81
2022/12/03 09:13:52;;;;;;;22.70;13.30;;;;;;;;;;4996167;28;20234;-83
2022/12/03 09:16:19;;;;;;;19.73;12.93;;;;;;;;;;4995335;28;20235;-83
2022/12/03 09:18:47;;;;;;;22.70;13.60;;;;;;;;;;4996490;28;20211;-84
2022/12/03 09:21:14;;;;;;;20.43;12.53;;;;;;;;;;5012370;28;20243;-82
2022/12/03 09:23:41;;;;;;;25.33;14.47;;;;;;;;;;5015075;28;20218;-82
2022/12/03 09:26:09;;;;;;;21.43;13.23;;;;;;;;;;5020190;28;20227;-82
2022/12/03 09:28:36;;;;;;;22.53;13.07;;;;;;;;;;5023960;28;20237;-82
2022/12/03 09:31:03;;;;;;;20.93;12.27;;;;;;;;;;5032771;28;20243;-82
2022/12/03 09:33:31;;;;;;;20.73;12.93;;;;;;;;;;5019543;28;20683;-82
2022/12/03 09:35:58;;;;;;;22.57;13.17;;;;;;;;;;5013633;28;20249;-81
2022/12/03 09:38:26;;;;;;;21.33;13.23;;;;;;;;;;5020510;28;20253;-81
2022/12/03 09:40:53;;;;;;;23.23;13.70;;;;;;;;;;5014621;28;20606;-81
2022/12/03 09:43:21;;;;;;;20.30;12.50;;;;;;;;;;5014431;28;20667;-82
2022/12/03 09:45:49;;;;;;;22.83;13.67;;;;;;;;;;5022376;28;20242;-82
2022/12/03 09:48:18;;;;;;;23.03;13.97;;;;;;;;;;4994026;28;20239;-83
2022/12/03 09:50:46;;;;;;;22.43;12.97;;;;;;;;;;5008306;28;20718;-82
2022/12/03 09:53:15;;;;;;;19.03;12.37;;;;;;;;;;5013750;28;20215;-82
2022/12/03 09:55:43;;;;;;;20.70;13.33;;;;;;;;;;5013738;28;20235;-82
2022/12/03 09:58:12;;;;;;;23.27;13.50;;;;;;;;;;5013594;28;20203;-82
2022/12/03 10:00:41;;;;;;;18.03;12.87;;;;;;;;;;5013537;28;20246;-83
2022/12/03 10:03:11;;;;;;;19.40;12.63;;;;;;;;;;5013724;28;20939;-82
2022/12/03 10:05:39;;;;;;;23.93;13.17;;;;;;;;;;5013497;28;20243;-82
2022/12/03 10:08:07;;;;;;;20.97;12.40;;;;;;;;;;5013580;28;20219;-83
2022/12/03 10:10:35;;;;;;;22.17;12.53;;;;;;;;;;5014761;28;20236;-82
2022/12/03 10:13:02;;;;;;;21.53;12.87;;;;;;;;;;5015470;28;20224;-83
2022/12/03 10:15:29;;;;;;;20.03;12.87;;;;;;;;;;5013793;28;20239;-83
2022/12/03 10:17:58;;;;;;;23.67;13.50;;;;;;;;;;5013674;28;20252;-85
2022/12/03 10:20:26;;;;;;;24.27;13.80;;;;;;;;;;5013274;28;20757;-83
2022/12/03 10:22:53;;;;;;;26.23;13.80;;;;;;;;;;5014164;28;20210;-84
2022/12/03 10:25:21;;;;;;;22.73;14.03;;;;;;;;;;5014076;28;20606;-84
2022/12/03 10:27:56;;;;;;;20.30;12.60;;;;;;;;;;5015792;28;20207;-84
2022/12/03 10:30:25;;;;;;;22.87;13.03;;;;;;;;;;5014465;28;20234;-85
2022/12/03 10:32:52;;;;;;;21.50;13.70;;;;;;;;;;5015280;28;20250;-84
2022/12/03 10:35:22;;;;;;;24.30;13.50;;;;;;;;;;5015311;28;20235;-85
2022/12/03 10:38:00;;;;;;;23.47;13.60;;;;;;;;;;5021139;28;20208;-84
2022/12/03 10:40:28;;;;;;;22.17;13.83;;;;;;;;;;5014830;28;20247;-84
2022/12/03 10:43:12;;;;;;;22.27;14.63;;;;;;;;;;5015188;28;20199;-84
2022/12/03 10:45:40;;;;;;;23.77;14.53;;;;;;;;;;5021662;28;20250;-84
2022/12/03 10:48:11;;;;;;;22.47;13.73;;;;;;;;;;5013692;28;20227;-83
2022/12/03 10:50:46;;;;;;;22.23;13.90;;;;;;;;;;5016942;28;20318;-83
2022/12/03 10:53:13;;;;;;;23.87;14.27;;;;;;;;;;5012880;28;20199;-83
2022/12/03 10:55:42;;;;;;;19.07;12.43;;;;;;;;;;5013190;28;20239;-83
2022/12/03 10:58:13;;;;;;;25.10;14.33;;;;;;;;;;5013391;28;20199;-83
2022/12/03 11:00:40;;;;;;;24.00;13.90;;;;;;;;;;5013187;28;20240;-83
2022/12/03 11:03:17;;;;;;;24.20;13.33;;;;;;;;;;5013868;28;20675;-83
2022/12/03 11:05:45;;;;;;;25.30;14.83;;;;;;;;;;4995857;28;20688;-83
2022/12/03 11:08:16;;;;;;;26.23;15.03;;;;;;;;;;4994464;28;20224;-83
2022/12/03 11:10:43;;;;;;;25.53;14.10;;;;;;;;;;4994282;28;20239;-83
2022/12/03 11:13:30;;;;;;;22.57;13.17;;;;;;;;;;4993544;28;20208;-83
2022/12/03 11:15:57;;;;;;;27.47;14.67;;;;;;;;;;4992677;28;20234;-83
2022/12/03 11:18:48;;;;;;;25.93;15.20;;;;;;;;;;4992861;28;20188;-84
2022/12/03 11:21:20;;;;;;;24.90;14.57;;;;;;;;;;4986872;28;20762;-83
2022/12/03 11:24:03;;;;;;;24.20;14.60;;;;;;;;;;5010829;28;20251;-84
2022/12/03 11:26:49;;;;;;;23.73;14.77;;;;;;;;;;5007927;28;20231;-83
2022/12/03 11:29:16;;;;;;;26.43;15.23;;;;;;;;;;5012057;28;20230;-83
2022/12/03 11:31:45;;;;;;;26.60;14.37;;;;;;;;;;5011541;28;20242;-83
2022/12/03 11:34:31;;;;;;;22.93;14.03;;;;;;;;;;5011976;28;20232;-84
2022/12/03 11:37:16;;;;;;;26.27;14.50;;;;;;;;;;5011493;28;20239;-84
2022/12/03 11:40:05;;;;;;;25.33;14.03;;;;;;;;;;5011338;28;20679;-84
2022/12/03 11:42:38;;;;;;;26.47;14.53;;;;;;;;;;5011835;28;20675;-83
2022/12/03 11:45:19;;;;;;;23.03;13.70;;;;;;;;;;5011449;28;20239;-83
2022/12/03 11:47:48;;;;;;;27.63;14.40;;;;;;;;;;5011630;28;20234;-83
2022/12/03 11:50:21;;;;;;;25.33;15.17;;;;;;;;;;5011043;28;20231;-83
2022/12/03 11:52:49;;;;;;;23.33;14.83;;;;;;;;;;5011944;28;20192;-83
2022/12/03 11:55:19;;;;;;;22.87;14.60;;;;;;;;;;5010565;28;20266;-83
2022/12/03 11:57:46;;;;;;;22.10;13.67;;;;;;;;;;5011478;28;20212;-83
2022/12/03 12:00:16;;;;;;;28.17;16.20;;;;;;;;;;5011324;28;20236;-83
2022/12/03 12:02:44;;;;;;;21.53;13.37;;;;;;;;;;5011391;28;20603;-82
2022/12/03 12:05:28;;;;;;;25.33;15.40;;;;;;;;;;4988429;28;20370;-83
2022/12/03 12:07:55;;;;;;;23.93;14.07;;;;;;;;;;5011188;28;20195;-83
2022/12/03 12:10:40;;;;;;;24.90;13.87;;;;;;;;;;5010965;28;20233;-84
2022/12/03 12:13:25;;;;;;;23.27;14.60;;;;;;;;;;4997832;28;20270;-84
2022/12/03 12:15:52;;;;;;;25.33;15.00;;;;;;;;;;5011045;28;20630;-85
2022/12/03 12:18:34;;;;;;;22.43;13.87;;;;;;;;;;5011200;28;20230;-84
2022/12/03 12:21:16;;;;;;;23.83;14.67;;;;;;;;;;5009691;28;20584;-86
2022/12/03 12:23:43;;;;;;;25.23;14.83;;;;;;;;;;5015807;28;20223;-87
2022/12/03 12:26:12;;;;;;;23.10;14.63;;;;;;;;;;5022034;28;20231;-84
2022/12/03 12:28:39;;;;;;;27.43;15.43;;;;;;;;;;5018201;28;20239;-84
2022/12/03 12:31:10;;;;;;;21.87;14.77;;;;;;;;;;5013151;28;20243;-84
2022/12/03 12:33:37;;;;;;;23.23;14.23;;;;;;;;;;5011051;28;20220;-83
2022/12/03 12:36:06;;;;;;;25.83;15.43;;;;;;;;;;5010335;28;20239;-84
2022/12/03 12:38:33;;;;;;;26.97;15.33;;;;;;;;;;5008811;28;20214;-84
2022/12/03 12:41:03;;;;;;;26.57;15.27;;;;;;;;;;5010677;28;20233;-84
2022/12/03 12:43:33;;;;;;;26.33;14.63;;;;;;;;;;5011781;28;20213;-84
2022/12/03 12:46:01;;;;;;;28.00;16.10;;;;;;;;;;5010816;28;20309;-84
2022/12/03 12:48:29;;;;;;;25.57;14.90;;;;;;;;;;5019309;28;20208;-83
2022/12/03 12:51:00;;;;;;;24.07;14.90;;;;;;;;;;5019119;28;20239;-84
2022/12/03 12:53:28;;;;;;;28.73;16.43;;;;;;;;;;5015561;28;20210;-84
2022/12/03 12:55:57;;;;;;;26.87;15.40;;;;;;;;;;5020496;28;20238;-84
2022/12/03 12:58:24;;;;;;;24.30;15.77;;;;;;;;;;5011020;28;20233;-84
2022/12/03 13:00:53;;;;;;;27.50;15.83;;;;;;;;;;5012672;28;20235;-84
2022/12/03 13:03:22;;;;;;;25.57;15.03;;;;;;;;;;5022781;28;20205;-84
2022/12/03 13:05:49;;;;;;;28.57;15.23;;;;;;;;;;5013339;28;20242;-84
2022/12/03 13:08:22;;;;;;;24.47;14.87;;;;;;;;;;5018604;28;20215;-83
2022/12/03 13:10:50;;;;;;;26.27;15.60;;;;;;;;;;5013523;28;20237;-84
2022/12/03 13:13:22;;;;;;;27.07;16.17;;;;;;;;;;5014501;28;20706;-84
2022/12/03 13:15:51;;;;;;;26.87;15.57;;;;;;;;;;5014018;28;20293;-85
2022/12/03 13:18:24;;;;;;;27.93;16.03;;;;;;;;;;4995532;28;20200;-83
2022/12/03 13:20:51;;;;;;;31.17;16.73;;;;;;;;;;4995539;28;20243;-83
2022/12/03 13:23:25;;;;;;;27.63;15.87;;;;;;;;;;5016911;28;20208;-83
2022/12/03 13:25:53;;;;;;;30.13;15.10;;;;;;;;;;5019637;28;20317;-83
2022/12/03 13:28:20;;;;;;;28.37;15.00;;;;;;;;;;5026589;28;20206;-83
2022/12/03 13:30:47;;;;;;;27.53;16.00;;;;;;;;;;5013450;28;20235;-83
2022/12/03 13:33:18;;;;;;;26.90;16.30;;;;;;;;;;5014210;28;20207;-83
2022/12/03 13:35:47;;;;;;;24.20;14.07;;;;;;;;;;4997160;28;20237;-83
2022/12/03 13:38:16;;;;;;;26.97;15.57;;;;;;;;;;5013793;28;20369;-83
2022/12/03 13:40:43;;;;;;;25.47;14.90;;;;;;;;;;5022556;28;20238;-84
2022/12/03 13:43:11;;;;;;;25.53;15.47;;;;;;;;;;5014145;28;20212;-83
2022/12/03 13:45:39;;;;;;;23.50;14.03;;;;;;;;;;5012576;28;20759;-83
2022/12/03 13:48:14;;;;;;;27.47;15.93;;;;;;;;;;5013062;28;20689;-83
2022/12/03 13:50:43;;;;;;;25.27;15.83;;;;;;;;;;5012267;28;20245;-83
2022/12/03 13:53:19;;;;;;;23.27;14.37;;;;;;;;;;5013489;28;20670;-83
2022/12/03 13:55:47;;;;;;;25.60;14.50;;;;;;;;;;5012965;28;20246;-83
2022/12/03 13:58:14;;;;;;;21.07;14.37;;;;;;;;;;5013201;28;20210;-82
2022/12/03 14:00:41;;;;;;;25.37;15.07;;;;;;;;;;5012189;28;20695;-83
2022/12/03 14:03:08;;;;;;;22.07;14.17;;;;;;;;;;5013434;28;20725;-83
2022/12/03 14:05:35;;;;;;;25.27;14.87;;;;;;;;;;5012598;28;20242;-83
2022/12/03 14:08:03;;;;;;;23.23;14.67;;;;;;;;;;5013282;28;20205;-83
2022/12/03 14:10:32;;;;;;;26.73;14.93;;;;;;;;;;5012448;28;20254;-83
2022/12/03 14:12:59;;;;;;;25.43;14.57;;;;;;;;;;5013003;28;20663;-83
2022/12/03 14:15:26;;;;;;;23.23;13.80;;;;;;;;;;5011874;28;20239;-85
2022/12/03 14:17:54;;;;;;;24.27;14.37;;;;;;;;;;5012509;28;20211;-84
2022/12/03 14:20:21;;;;;;;28.37;14.50;;;;;;;;;;5012471;28;20319;-82
2022/12/03 14:22:48;;;;;;;25.00;15.10;;;;;;;;;;5012758;28;20297;-82
2022/12/03 14:25:15;;;;;;;21.60;13.40;;;;;;;;;;5012197;28;20231;-82
2022/12/03 14:27:44;;;;;;;21.17;13.27;;;;;;;;;;5012421;28;20673;-82
2022/12/03 14:30:11;;;;;;;22.83;14.77;;;;;;;;;;5012435;28;20245;-82
2022/12/03 14:32:38;;;;;;;22.93;14.27;;;;;;;;;;5012946;28;20216;-82
2022/12/03 14:35:06;;;;;;;21.53;13.60;;;;;;;;;;5012231;28;20238;-82
2022/12/03 14:37:33;;;;;;;20.80;13.60;;;;;;;;;;5012525;28;20205;-82
2022/12/03 14:40:00;;;;;;;24.10;14.57;;;;;;;;;;4996436;28;20235;-81
2022/12/03 14:42:27;;;;;;;24.17;13.87;;;;;;;;;;5012713;28;20229;-84
2022/12/03 14:44:56;;;;;;;24.97;14.63;;;;;;;;;;5011826;28;20246;-82